Paynesville, MN

9:18 AM CST on December 21, 2014 (GMT -0600)
Paynesville | Change Station
CLOSE
Current Station
Airport
Location: Paynesville,
Elevation: 1181 ft
Nearby Weather Stations

Elev 1181 ft 45.37 °N, 94.74 °W | Updated 4 minutes ago

Light Freezing Fog
Freezing Fog
29 °F
Feels Like 24 °F
N
5
Wind Variable Wind from ESE

Today
High -- | Low -- °F
--% Chance of Precip.
Yesterday
High -- | Low -- °F
Precip. -- in
7:55 AM 4:38 PM
Waning Crescent, 0% visible
Pressure 29.81 in
Visibility 0.2 miles
Clouds Overcast 100 ft
Windchill 24 °F
Dew Point 30 °F
Humidity 100%
Rainfall 0.00 in
Snow Depth Not available.
UV 0 out of 12
Pollen .10 out of 12
Air Quality Not available.
Flu Activity Not available.
METAR KPEX 211514Z AUTO 11004KT 1/4SM FZFG OVC001 M01/M01 A2981 RMK AO2 T10151013

More Conditions Fewer Conditions

Pressure 29.81 in
Visibility 0.2 miles
Clouds Overcast 100 ft
Windchill 24 °F
Dew Point 30 °F
Humidity 100%
Rainfall 0.00 in
Snow Depth Not available.
UV 0 out of 12
Pollen .10 out of 12
Air Quality Not available.
Flu Activity Not available.
METAR KPEX 211514Z AUTO 11004KT 1/4SM FZFG OVC001 M01/M01 A2981 RMK AO2 T10151013

More Conditions Fewer Conditions

10-Day Weather Forecast

Almanac

Astronomy

Dec. 21, 2014 Rise Set
Actual Time
Civil Twilight
Nautical Twilight
Astronomical Twilight
Moon
Length of Visible Light
Length of Day
Tomorrow will be .
, % of the Moon is Illuminated

Today's Extremes

State Highs State Lows

Community

WunderPhotos

Upload Photos

1,779,408 photos uploaded!

WunderBlogs® & News

Nearby

Air Quality

  Air Quality AQ Index Pollutant
Not available.

Snow Depth

Station Depth Elevation

Earthquake Activity

City Distance Mag. Time & Date
Minimum magnitude displayed is 2.5.

Coastal Water Temperatures

Place Temperature

Nearby Weather Stations